sensor_id;sensor_type;location;lat;lon;timestamp;pressure;altitude;pressure_sealevel;temperature;humidity
54306;BME280;66145;45.188;5.712;2023-04-25T00:01:14;98801.81;;;18.79;50.20
54306;BME280;66145;45.188;5.712;2023-04-25T00:03:39;98786.50;;;18.78;50.13
54306;BME280;66145;45.188;5.712;2023-04-25T00:06:05;98786.34;;;18.83;50.00
54306;BME280;66145;45.188;5.712;2023-04-25T00:08:32;98799.88;;;18.97;50.07
54306;BME280;66145;45.188;5.712;2023-04-25T00:10:58;98800.03;;;19.00;49.98
54306;BME280;66145;45.188;5.712;2023-04-25T00:13:24;98785.84;;;18.90;49.90
54306;BME280;66145;45.188;5.712;2023-04-25T00:15:50;98811.47;;;19.03;50.00
54306;BME280;66145;45.188;5.712;2023-04-25T00:18:16;98803.41;;;18.97;49.93
54306;BME280;66145;45.188;5.712;2023-04-25T00:20:43;98781.69;;;18.83;49.91
54306;BME280;66145;45.188;5.712;2023-04-25T00:23:20;98788.25;;;18.91;50.06
54306;BME280;66145;45.188;5.712;2023-04-25T00:25:47;98769.13;;;18.74;49.90
54306;BME280;66145;45.188;5.712;2023-04-25T00:28:13;98769.25;;;18.77;50.03
54306;BME280;66145;45.188;5.712;2023-04-25T00:30:39;98792.91;;;18.91;50.14
54306;BME280;66145;45.188;5.712;2023-04-25T00:33:04;98786.31;;;18.92;50.05
54306;BME280;66145;45.188;5.712;2023-04-25T00:35:30;98769.25;;;18.77;49.96
54306;BME280;66145;45.188;5.712;2023-04-25T00:37:55;98785.19;;;18.93;49.63
54306;BME280;66145;45.188;5.712;2023-04-25T00:40:21;98806.00;;;19.03;49.70
54306;BME280;66145;45.188;5.712;2023-04-25T00:42:47;98809.22;;;19.05;49.71
54306;BME280;66145;45.188;5.712;2023-04-25T00:45:13;98800.50;;;19.03;49.74
54306;BME280;66145;45.188;5.712;2023-04-25T00:47:40;98808.09;;;19.06;49.64
54306;BME280;66145;45.188;5.712;2023-04-25T00:50:06;98790.03;;;18.96;49.96
54306;BME280;66145;45.188;5.712;2023-04-25T00:52:32;98769.72;;;18.88;49.59
54306;BME280;66145;45.188;5.712;2023-04-25T00:54:58;98754.44;;;18.78;49.80
54306;BME280;66145;45.188;5.712;2023-04-25T00:57:23;98780.34;;;18.98;49.55
54306;BME280;66145;45.188;5.712;2023-04-25T00:59:51;98747.50;;;18.81;49.78
54306;BME280;66145;45.188;5.712;2023-04-25T01:02:18;98734.91;;;18.80;49.91
54306;BME280;66145;45.188;5.712;2023-04-25T01:04:45;98736.72;;;18.76;49.80
54306;BME280;66145;45.188;5.712;2023-04-25T01:07:11;98765.88;;;18.98;49.79
54306;BME280;66145;45.188;5.712;2023-04-25T01:09:36;98754.56;;;18.91;49.66
54306;BME280;66145;45.188;5.712;2023-04-25T01:12:02;98763.91;;;18.98;49.58
54306;BME280;66145;45.188;5.712;2023-04-25T01:14:28;98737.97;;;18.87;49.53
54306;BME280;66145;45.188;5.712;2023-04-25T01:16:54;98730.41;;;18.84;49.53
54306;BME280;66145;45.188;5.712;2023-04-25T01:19:19;98744.72;;;18.98;49.59
54306;BME280;66145;45.188;5.712;2023-04-25T01:21:45;98737.34;;;18.81;49.75
54306;BME280;66145;45.188;5.712;2023-04-25T01:24:10;98677.53;;;18.45;49.60
54306;BME280;66145;45.188;5.712;2023-04-25T01:26:36;98737.34;;;18.81;49.67
54306;BME280;66145;45.188;5.712;2023-04-25T01:29:04;98746.03;;;18.92;49.78
54306;BME280;66145;45.188;5.712;2023-04-25T01:31:29;98748.78;;;18.92;49.68
54306;BME280;66145;45.188;5.712;2023-04-25T01:33:55;98763.13;;;18.98;50.06
54306;BME280;66145;45.188;5.712;2023-04-25T01:36:21;98736.53;;;18.81;49.96
54306;BME280;66145;45.188;5.712;2023-04-25T01:38:47;98757.00;;;18.92;49.91
54306;BME280;66145;45.188;5.712;2023-04-25T01:41:13;98661.56;;;18.38;50.07
54306;BME280;66145;45.188;5.712;2023-04-25T01:43:39;98734.41;;;18.87;49.81
54306;BME280;66145;45.188;5.712;2023-04-25T01:46:05;98732.16;;;18.89;49.55
54306;BME280;66145;45.188;5.712;2023-04-25T01:48:31;98753.41;;;19.09;49.97
54306;BME280;66145;45.188;5.712;2023-04-25T01:50:56;98734.41;;;18.95;49.71
54306;BME280;66145;45.188;5.712;2023-04-25T01:53:22;98754.53;;;19.08;49.84
54306;BME280;66145;45.188;5.712;2023-04-25T01:55:47;98735.84;;;18.93;49.97
54306;BME280;66145;45.188;5.712;2023-04-25T01:58:13;98716.84;;;18.88;49.93
54306;BME280;66145;45.188;5.712;2023-04-25T02:00:38;98741.00;;;19.03;49.86
54306;BME280;66145;45.188;5.712;2023-04-25T02:03:04;98735.53;;;18.94;49.97
54306;BME280;66145;45.188;5.712;2023-04-25T02:05:37;98687.75;;;18.65;49.91
54306;BME280;66145;45.188;5.712;2023-04-25T02:08:05;98748.44;;;19.03;50.07
54306;BME280;66145;45.188;5.712;2023-04-25T02:10:30;98687.09;;;18.68;50.05
54306;BME280;66145;45.188;5.712;2023-04-25T02:12:57;98713.63;;;18.85;50.09
54306;BME280;66145;45.188;5.712;2023-04-25T02:15:22;98706.06;;;18.91;49.87
54306;BME280;66145;45.188;5.712;2023-04-25T02:17:47;98728.72;;;19.09;49.84
54306;BME280;66145;45.188;5.712;2023-04-25T02:20:14;98732.91;;;19.15;49.90
54306;BME280;66145;45.188;5.712;2023-04-25T02:22:41;98694.91;;;18.96;49.78
54306;BME280;66145;45.188;5.712;2023-04-25T02:25:07;98727.13;;;19.08;50.02
54306;BME280;66145;45.188;5.712;2023-04-25T02:27:32;98715.06;;;19.00;49.61
54306;BME280;66145;45.188;5.712;2023-04-25T02:29:58;98710.41;;;19.01;49.73
54306;BME280;66145;45.188;5.712;2023-04-25T02:32:23;98694.75;;;18.93;49.97
54306;BME280;66145;45.188;5.712;2023-04-25T02:34:49;98732.25;;;19.10;49.98
54306;BME280;66145;45.188;5.712;2023-04-25T02:37:14;98712.19;;;18.97;49.94
54306;BME280;66145;45.188;5.712;2023-04-25T02:39:39;98720.53;;;19.00;49.98
54306;BME280;66145;45.188;5.712;2023-04-25T02:42:05;98729.38;;;19.06;50.15
54306;BME280;66145;45.188;5.712;2023-04-25T02:44:30;98734.50;;;19.17;49.94
54306;BME280;66145;45.188;5.712;2023-04-25T02:46:55;98715.81;;;19.10;49.89
54306;BME280;66145;45.188;5.712;2023-04-25T02:49:21;98719.84;;;19.12;49.75
54306;BME280;66145;45.188;5.712;2023-04-25T02:51:46;98740.75;;;19.26;49.62
54306;BME280;66145;45.188;5.712;2023-04-25T02:54:11;98725.78;;;19.23;49.69
54306;BME280;66145;45.188;5.712;2023-04-25T02:56:37;98738.50;;;19.28;49.67
54306;BME280;66145;45.188;5.712;2023-04-25T02:59:02;98681.84;;;18.93;49.48
54306;BME280;66145;45.188;5.712;2023-04-25T03:01:27;98723.03;;;19.23;49.50
54306;BME280;66145;45.188;5.712;2023-04-25T03:03:53;98714.84;;;19.14;49.46
54306;BME280;66145;45.188;5.712;2023-04-25T03:06:18;98736.88;;;19.27;49.78
54306;BME280;66145;45.188;5.712;2023-04-25T03:08:43;98734.44;;;19.25;49.82
54306;BME280;66145;45.188;5.712;2023-04-25T03:11:09;98737.53;;;19.24;49.96
54306;BME280;66145;45.188;5.712;2023-04-25T03:13:34;98663.06;;;18.74;49.95
54306;BME280;66145;45.188;5.712;2023-04-25T03:16:00;98710.19;;;19.06;49.98
54306;BME280;66145;45.188;5.712;2023-04-25T03:18:25;98738.78;;;19.26;49.71
54306;BME280;66145;45.188;5.712;2023-04-25T03:20:50;98725.78;;;19.23;49.90
54306;BME280;66145;45.188;5.712;2023-04-25T03:23:19;98737.00;;;19.30;49.87
54306;BME280;66145;45.188;5.712;2023-04-25T03:25:44;98706.28;;;19.16;49.65
54306;BME280;66145;45.188;5.712;2023-04-25T03:28:10;98717.56;;;19.23;49.50
54306;BME280;66145;45.188;5.712;2023-04-25T03:30:35;98722.50;;;19.30;49.34
54306;BME280;66145;45.188;5.712;2023-04-25T03:33:01;98679.78;;;18.99;49.92
54306;BME280;66145;45.188;5.712;2023-04-25T03:35:26;98702.28;;;19.13;49.75
54306;BME280;66145;45.188;5.712;2023-04-25T03:37:52;98700.31;;;19.14;49.87
54306;BME280;66145;45.188;5.712;2023-04-25T03:40:17;98705.00;;;19.13;49.81
54306;BME280;66145;45.188;5.712;2023-04-25T03:42:42;98700.19;;;19.10;49.95
54306;BME280;66145;45.188;5.712;2023-04-25T03:45:08;98684.13;;;18.91;49.82
54306;BME280;66145;45.188;5.712;2023-04-25T03:47:33;98670.94;;;18.84;49.87
54306;BME280;66145;45.188;5.712;2023-04-25T03:49:58;98727.53;;;19.28;49.98
54306;BME280;66145;45.188;5.712;2023-04-25T03:52:25;98729.59;;;19.31;49.86
54306;BME280;66145;45.188;5.712;2023-04-25T03:54:51;98697.28;;;19.15;49.88
54306;BME280;66145;45.188;5.712;2023-04-25T03:57:16;98716.69;;;19.32;49.85
54306;BME280;66145;45.188;5.712;2023-04-25T03:59:41;98723.13;;;19.36;49.77
54306;BME280;66145;45.188;5.712;2023-04-25T04:02:07;98710.41;;;19.31;49.93
54306;BME280;66145;45.188;5.712;2023-04-25T04:04:32;98707.03;;;19.25;49.74
54306;BME280;66145;45.188;5.712;2023-04-25T04:06:57;98699.81;;;19.21;49.65
54306;BME280;66145;45.188;5.712;2023-04-25T04:09:23;98700.47;;;19.18;49.75
54306;BME280;66145;45.188;5.712;2023-04-25T04:11:48;98743.09;;;19.36;50.17
54306;BME280;66145;45.188;5.712;2023-04-25T04:14:13;98710.97;;;19.15;49.98
54306;BME280;66145;45.188;5.712;2023-04-25T04:16:39;98733.66;;;19.25;50.03
54306;BME280;66145;45.188;5.712;2023-04-25T04:19:04;98745.56;;;19.29;50.03
54306;BME280;66145;45.188;5.712;2023-04-25T04:21:30;98692.53;;;18.95;50.00
54306;BME280;66145;45.188;5.712;2023-04-25T04:23:57;98725.81;;;19.14;49.97
54306;BME280;66145;45.188;5.712;2023-04-25T04:26:23;98693.94;;;19.01;50.10
54306;BME280;66145;45.188;5.712;2023-04-25T04:28:49;98677.03;;;18.90;49.68
54306;BME280;66145;45.188;5.712;2023-04-25T04:31:16;98721.06;;;19.24;49.57
54306;BME280;66145;45.188;5.712;2023-04-25T04:33:43;98719.28;;;19.28;49.52
54306;BME280;66145;45.188;5.712;2023-04-25T04:36:09;98736.31;;;19.42;49.44
54306;BME280;66145;45.188;5.712;2023-04-25T04:38:35;98719.44;;;19.32;49.36
54306;BME280;66145;45.188;5.712;2023-04-25T04:41:01;98750.50;;;19.44;49.31
54306;BME280;66145;45.188;5.712;2023-04-25T04:43:27;98770.97;;;19.47;49.63
54306;BME280;66145;45.188;5.712;2023-04-25T04:45:53;98760.84;;;19.39;49.51
54306;BME280;66145;45.188;5.712;2023-04-25T04:48:21;98751.38;;;19.27;49.63
54306;BME280;66145;45.188;5.712;2023-04-25T04:50:47;98750.09;;;19.25;49.70
54306;BME280;66145;45.188;5.712;2023-04-25T04:53:12;98743.19;;;19.19;49.72
54306;BME280;66145;45.188;5.712;2023-04-25T04:55:38;98750.44;;;19.23;49.54
54306;BME280;66145;45.188;5.712;2023-04-25T04:58:04;98782.13;;;19.42;49.55
54306;BME280;66145;45.188;5.712;2023-04-25T05:00:29;98754.94;;;19.28;49.37
54306;BME280;66145;45.188;5.712;2023-04-25T05:02:55;98767.94;;;19.40;49.29
54306;BME280;66145;45.188;5.712;2023-04-25T05:05:21;98761.16;;;19.37;49.24
54306;BME280;66145;45.188;5.712;2023-04-25T05:07:46;98788.25;;;19.48;49.25
54306;BME280;66145;45.188;5.712;2023-04-25T05:10:11;98784.38;;;19.49;49.35
54306;BME280;66145;45.188;5.712;2023-04-25T05:12:37;98781.66;;;19.40;49.26
54306;BME280;66145;45.188;5.712;2023-04-25T05:15:02;98781.84;;;19.35;49.48
54306;BME280;66145;45.188;5.712;2023-04-25T05:17:27;98801.97;;;19.48;49.52
54306;BME280;66145;45.188;5.712;2023-04-25T05:19:53;98714.31;;;18.82;49.90
54306;BME280;66145;45.188;5.712;2023-04-25T05:22:18;98777.34;;;19.30;49.62
54306;BME280;66145;45.188;5.712;2023-04-25T05:24:43;98781.88;;;19.26;49.48
54306;BME280;66145;45.188;5.712;2023-04-25T05:27:09;98814.06;;;19.47;49.30
54306;BME280;66145;45.188;5.712;2023-04-25T05:29:34;98779.75;;;19.32;49.33
54306;BME280;66145;45.188;5.712;2023-04-25T05:32:00;98800.03;;;19.39;49.25
54306;BME280;66145;45.188;5.712;2023-04-25T05:34:25;98827.88;;;19.59;49.07
54306;BME280;66145;45.188;5.712;2023-04-25T05:36:51;98835.28;;;19.58;49.13
54306;BME280;66145;45.188;5.712;2023-04-25T05:39:16;98837.09;;;19.54;49.05
54306;BME280;66145;45.188;5.712;2023-04-25T05:41:42;98813.47;;;19.32;49.14
54306;BME280;66145;45.188;5.712;2023-04-25T05:44:07;98845.63;;;19.53;49.26
54306;BME280;66145;45.188;5.712;2023-04-25T05:46:33;98785.66;;;19.04;49.23
54306;BME280;66145;45.188;5.712;2023-04-25T05:48:58;98851.97;;;19.44;49.34
54306;BME280;66145;45.188;5.712;2023-04-25T05:51:24;98847.47;;;19.40;49.48
54306;BME280;66145;45.188;5.712;2023-04-25T05:53:49;98851.31;;;19.48;49.45
54306;BME280;66145;45.188;5.712;2023-04-25T05:56:15;98856.00;;;19.47;49.37
54306;BME280;66145;45.188;5.712;2023-04-25T05:58:40;98830.88;;;19.36;49.44
54306;BME280;66145;45.188;5.712;2023-04-25T06:01:06;98855.00;;;19.52;49.41
54306;BME280;66145;45.188;5.712;2023-04-25T06:03:31;98775.19;;;19.06;48.96
54306;BME280;66145;45.188;5.712;2023-04-25T06:05:56;98861.94;;;19.58;49.29
54306;BME280;66145;45.188;5.712;2023-04-25T06:08:22;98840.88;;;19.41;49.25
54306;BME280;66145;45.188;5.712;2023-04-25T06:10:47;98845.88;;;19.39;48.95
54306;BME280;66145;45.188;5.712;2023-04-25T06:13:12;98854.09;;;19.39;49.23
54306;BME280;66145;45.188;5.712;2023-04-25T06:15:38;98871.31;;;19.48;49.33
54306;BME280;66145;45.188;5.712;2023-04-25T06:18:03;98860.09;;;19.32;49.17
54306;BME280;66145;45.188;5.712;2023-04-25T06:20:28;98880.53;;;19.43;49.43
54306;BME280;66145;45.188;5.712;2023-04-25T06:22:54;98871.22;;;19.36;49.29
54306;BME280;66145;45.188;5.712;2023-04-25T06:25:19;98873.91;;;19.44;49.29
54306;BME280;66145;45.188;5.712;2023-04-25T06:27:45;98867.13;;;19.42;49.09
54306;BME280;66145;45.188;5.712;2023-04-25T06:30:10;98850.88;;;19.37;49.10
54306;BME280;66145;45.188;5.712;2023-04-25T06:32:37;98852.50;;;19.38;49.23
54306;BME280;66145;45.188;5.712;2023-04-25T06:35:03;98871.47;;;19.52;49.05
54306;BME280;66145;45.188;5.712;2023-04-25T06:37:29;98882.59;;;19.55;49.13
54306;BME280;66145;45.188;5.712;2023-04-25T06:39:54;98859.09;;;19.37;49.13
54306;BME280;66145;45.188;5.712;2023-04-25T06:42:19;98889.53;;;19.53;49.19
54306;BME280;66145;45.188;5.712;2023-04-25T06:44:45;98871.69;;;19.38;49.36
54306;BME280;66145;45.188;5.712;2023-04-25T06:47:10;98888.59;;;19.49;49.32
54306;BME280;66145;45.188;5.712;2023-04-25T06:49:35;98881.03;;;19.37;49.36
54306;BME280;66145;45.188;5.712;2023-04-25T06:52:01;98866.72;;;19.31;49.42
54306;BME280;66145;45.188;5.712;2023-04-25T06:54:26;98859.91;;;19.28;49.30
54306;BME280;66145;45.188;5.712;2023-04-25T06:56:55;98859.13;;;19.28;49.18
54306;BME280;66145;45.188;5.712;2023-04-25T06:59:20;98886.00;;;19.52;49.29
54306;BME280;66145;45.188;5.712;2023-04-25T07:01:46;98839.59;;;19.29;49.01
54306;BME280;66145;45.188;5.712;2023-04-25T07:04:11;98891.13;;;19.54;48.92
54306;BME280;66145;45.188;5.712;2023-04-25T07:06:37;98853.94;;;19.35;48.94
54306;BME280;66145;45.188;5.712;2023-04-25T07:09:07;98889.69;;;19.56;49.09
54306;BME280;66145;45.188;5.712;2023-04-25T07:11:33;98862.50;;;19.34;49.19
54306;BME280;66145;45.188;5.712;2023-04-25T07:13:59;98878.94;;;19.34;49.21
54306;BME280;66145;45.188;5.712;2023-04-25T07:16:25;98909.38;;;19.50;49.34
54306;BME280;66145;45.188;5.712;2023-04-25T07:18:50;98905.38;;;19.47;49.45
54306;BME280;66145;45.188;5.712;2023-04-25T07:21:15;98911.50;;;19.44;49.22
54306;BME280;66145;45.188;5.712;2023-04-25T07:23:41;98906.84;;;19.44;49.17
54306;BME280;66145;45.188;5.712;2023-04-25T07:26:06;98890.25;;;19.32;49.15
54306;BME280;66145;45.188;5.712;2023-04-25T07:28:32;98885.56;;;19.33;49.06
54306;BME280;66145;45.188;5.712;2023-04-25T07:30:57;98884.09;;;19.35;49.01
54306;BME280;66145;45.188;5.712;2023-04-25T07:33:23;98910.81;;;19.56;48.92
54306;BME280;66145;45.188;5.712;2023-04-25T07:35:48;98902.34;;;19.40;49.01
54306;BME280;66145;45.188;5.712;2023-04-25T07:38:14;98906.84;;;19.44;49.19
54306;BME280;66145;45.188;5.712;2023-04-25T07:40:39;98883.97;;;19.32;49.37
54306;BME280;66145;45.188;5.712;2023-04-25T07:43:04;98900.88;;;19.34;49.11
54306;BME280;66145;45.188;5.712;2023-04-25T07:45:30;98912.19;;;19.32;49.14
54306;BME280;66145;45.188;5.712;2023-04-25T07:47:55;98928.78;;;19.44;49.39
54306;BME280;66145;45.188;5.712;2023-04-25T07:50:21;98872.06;;;19.10;49.31
54306;BME280;66145;45.188;5.712;2023-04-25T07:52:46;98924.09;;;19.45;49.06
54306;BME280;66145;45.188;5.712;2023-04-25T07:55:11;98895.75;;;19.23;49.09
54306;BME280;66145;45.188;5.712;2023-04-25T07:57:37;98935.38;;;19.52;48.85
54306;BME280;66145;45.188;5.712;2023-04-25T08:00:04;98911.06;;;19.33;48.88
54306;BME280;66145;45.188;5.712;2023-04-25T08:02:30;98870.31;;;19.05;48.78
54306;BME280;66145;45.188;5.712;2023-04-25T08:04:55;98917.00;;;19.35;48.94
54306;BME280;66145;45.188;5.712;2023-04-25T08:07:20;98943.91;;;19.51;48.98
54306;BME280;66145;45.188;5.712;2023-04-25T08:09:46;98924.59;;;19.29;48.84
54306;BME280;66145;45.188;5.712;2023-04-25T08:12:11;98929.28;;;19.29;49.14
54306;BME280;66145;45.188;5.712;2023-04-25T08:14:37;98953.78;;;19.43;48.90
54306;BME280;66145;45.188;5.712;2023-04-25T08:17:04;98962.34;;;19.41;49.13
54306;BME280;66145;45.188;5.712;2023-04-25T08:19:30;98936.72;;;19.20;49.00
54306;BME280;66145;45.188;5.712;2023-04-25T08:21:56;98904.31;;;19.04;48.94
54306;BME280;66145;45.188;5.712;2023-04-25T08:24:21;98943.31;;;19.27;49.09
54306;BME280;66145;45.188;5.712;2023-04-25T08:26:47;98930.94;;;19.12;49.33
54306;BME280;66145;45.188;5.712;2023-04-25T08:29:12;98929.31;;;19.20;49.13
54306;BME280;66145;45.188;5.712;2023-04-25T08:31:38;98924.97;;;19.10;49.39
54306;BME280;66145;45.188;5.712;2023-04-25T08:34:03;98955.41;;;19.26;49.39
54306;BME280;66145;45.188;5.712;2023-04-25T08:36:28;98961.56;;;19.23;49.38
54306;BME280;66145;45.188;5.712;2023-04-25T08:38:55;98957.38;;;19.17;49.64
54306;BME280;66145;45.188;5.712;2023-04-25T08:41:21;98925.59;;;18.90;49.71
54306;BME280;66145;45.188;5.712;2023-04-25T08:43:48;98950.28;;;19.07;49.23
54306;BME280;66145;45.188;5.712;2023-04-25T08:46:17;98923.97;;;18.89;49.53
54306;BME280;66145;45.188;5.712;2023-04-25T08:48:45;98952.88;;;19.04;49.33
54306;BME280;66145;45.188;5.712;2023-04-25T08:51:17;98979.94;;;19.23;49.31
54306;BME280;66145;45.188;5.712;2023-04-25T08:53:49;98905.63;;;18.72;49.54
54306;BME280;66145;45.188;5.712;2023-04-25T08:56:16;98993.34;;;19.24;49.09
54306;BME280;66145;45.188;5.712;2023-04-25T08:58:50;98985.13;;;19.15;49.31
54306;BME280;66145;45.188;5.712;2023-04-25T09:01:16;98993.81;;;19.26;49.16
54306;BME280;66145;45.188;5.712;2023-04-25T09:03:43;98949.47;;;18.89;49.16
54306;BME280;66145;45.188;5.712;2023-04-25T09:06:10;99011.22;;;19.22;49.05
54306;BME280;66145;45.188;5.712;2023-04-25T09:08:37;98981.38;;;18.94;49.24
54306;BME280;66145;45.188;5.712;2023-04-25T09:11:02;99004.47;;;19.10;49.19
54306;BME280;66145;45.188;5.712;2023-04-25T09:13:28;98999.47;;;19.12;49.25
54306;BME280;66145;45.188;5.712;2023-04-25T09:15:56;98998.66;;;19.12;49.36
54306;BME280;66145;45.188;5.712;2023-04-25T09:18:29;99008.19;;;19.14;49.24
54306;BME280;66145;45.188;5.712;2023-04-25T09:20:57;98999.31;;;19.00;49.32
54306;BME280;66145;45.188;5.712;2023-04-25T09:23:23;99013.16;;;19.04;49.64
54306;BME280;66145;45.188;5.712;2023-04-25T09:25:51;98979.75;;;18.84;49.63
54306;BME280;66145;45.188;5.712;2023-04-25T09:28:23;99013.47;;;19.02;49.45
54306;BME280;66145;45.188;5.712;2023-04-25T09:30:49;99011.38;;;18.90;49.87
54306;BME280;66145;45.188;5.712;2023-04-25T09:33:14;99020.25;;;18.96;49.63
54306;BME280;66145;45.188;5.712;2023-04-25T09:35:42;98985.56;;;18.82;49.74
54306;BME280;66145;45.188;5.712;2023-04-25T09:38:14;98956.03;;;18.62;49.89
54306;BME280;66145;45.188;5.712;2023-04-25T09:40:51;98965.25;;;18.66;50.18
54306;BME280;66145;45.188;5.712;2023-04-25T09:43:20;98973.97;;;18.77;49.80
54306;BME280;66145;45.188;5.712;2023-04-25T09:45:46;98995.91;;;18.94;49.74
54306;BME280;66145;45.188;5.712;2023-04-25T09:48:23;98968.00;;;18.83;49.32
54306;BME280;66145;45.188;5.712;2023-04-25T09:51:11;99007.06;;;19.07;49.31
54306;BME280;66145;45.188;5.712;2023-04-25T09:53:43;98989.47;;;18.99;49.18
54306;BME280;66145;45.188;5.712;2023-04-25T09:56:10;99005.44;;;19.06;49.53
54306;BME280;66145;45.188;5.712;2023-04-25T09:58:38;98956.69;;;18.76;49.28
54306;BME280;66145;45.188;5.712;2023-04-25T10:01:10;98969.91;;;18.83;49.38
54306;BME280;66145;45.188;5.712;2023-04-25T10:03:37;98989.59;;;18.94;49.45
54306;BME280;66145;45.188;5.712;2023-04-25T10:06:09;99002.19;;;18.95;49.54
54306;BME280;66145;45.188;5.712;2023-04-25T10:08:38;98993.47;;;18.93;49.48
54306;BME280;66145;45.188;5.712;2023-04-25T10:11:05;98994.59;;;18.92;49.69
54306;BME280;66145;45.188;5.712;2023-04-25T10:13:31;98943.81;;;18.59;49.78
54306;BME280;66145;45.188;5.712;2023-04-25T10:15:58;98991.03;;;18.82;49.78
54306;BME280;66145;45.188;5.712;2023-04-25T10:18:25;98995.69;;;18.82;49.69
54306;BME280;66145;45.188;5.712;2023-04-25T10:20:53;98989.91;;;18.75;49.92
54306;BME280;66145;45.188;5.712;2023-04-25T10:23:20;98928.44;;;18.32;50.02
54306;BME280;66145;45.188;5.712;2023-04-25T10:25:45;98974.88;;;18.63;50.06
54306;BME280;66145;45.188;5.712;2023-04-25T10:28:11;98998.13;;;18.83;49.88
54306;BME280;66145;45.188;5.712;2023-04-25T10:30:36;98994.09;;;18.90;49.51
54306;BME280;66145;45.188;5.712;2023-04-25T10:33:16;98989.28;;;18.95;49.58
54306;BME280;66145;45.188;5.712;2023-04-25T10:35:44;98974.28;;;18.93;49.39
54306;BME280;66145;45.188;5.712;2023-04-25T10:38:11;98924.31;;;18.61;49.57
54306;BME280;66145;45.188;5.712;2023-04-25T10:40:38;98943.81;;;18.77;49.36
54306;BME280;66145;45.188;5.712;2023-04-25T10:46:22;98947.34;;;18.77;49.44
54306;BME280;66145;45.188;5.712;2023-04-25T10:48:55;98962.69;;;18.87;49.34
54306;BME280;66145;45.188;5.712;2023-04-25T10:54:00;98973.97;;;18.94;49.34
54306;BME280;66145;45.188;5.712;2023-04-25T10:56:33;98896.59;;;18.45;49.46
54306;BME280;66145;45.188;5.712;2023-04-25T10:59:08;98923.66;;;18.64;49.54
54306;BME280;66145;45.188;5.712;2023-04-25T11:01:37;98957.34;;;18.82;49.61
54306;BME280;66145;45.188;5.712;2023-04-25T11:04:03;98955.25;;;18.79;49.85
54306;BME280;66145;45.188;5.712;2023-04-25T11:06:37;98948.47;;;18.76;49.92
54306;BME280;66145;45.188;5.712;2023-04-25T11:09:12;98959.78;;;18.75;50.10
54306;BME280;66145;45.188;5.712;2023-04-25T11:11:40;98957.34;;;18.73;49.83
54306;BME280;66145;45.188;5.712;2023-04-25T11:14:05;98912.84;;;18.59;49.63
54306;BME280;66145;45.188;5.712;2023-04-25T11:16:31;98887.22;;;18.54;49.30
54306;BME280;66145;45.188;5.712;2023-04-25T11:18:58;98927.38;;;18.77;49.49
54306;BME280;66145;45.188;5.712;2023-04-25T11:21:25;98896.13;;;18.60;49.39
54306;BME280;66145;45.188;5.712;2023-04-25T11:23:51;98849.69;;;18.29;49.31
54306;BME280;66145;45.188;5.712;2023-04-25T11:26:19;98881.75;;;18.54;49.45
54306;BME280;66145;45.188;5.712;2023-04-25T11:28:45;98861.00;;;18.45;49.40
54306;BME280;66145;45.188;5.712;2023-04-25T11:31:10;98898.69;;;18.74;49.30
54306;BME280;66145;45.188;5.712;2023-04-25T11:33:35;98912.72;;;18.81;49.48
54306;BME280;66145;45.188;5.712;2023-04-25T11:36:01;98923.34;;;18.83;49.46
54306;BME280;66145;45.188;5.712;2023-04-25T11:38:27;98908.50;;;18.84;49.27
54306;BME280;66145;45.188;5.712;2023-04-25T11:40:53;98849.56;;;18.43;49.17
54306;BME280;66145;45.188;5.712;2023-04-25T11:43:22;98914.00;;;18.75;49.30
54306;BME280;66145;45.188;5.712;2023-04-25T11:45:50;98912.88;;;18.76;49.07
54306;BME280;66145;45.188;5.712;2023-04-25T11:48:18;98919.13;;;18.85;49.44
54306;BME280;66145;45.188;5.712;2023-04-25T11:50:43;98918.00;;;18.78;49.62
54306;BME280;66145;45.188;5.712;2023-04-25T11:53:09;98883.22;;;18.52;49.68
54306;BME280;66145;45.188;5.712;2023-04-25T11:55:35;98929.44;;;18.71;49.54
54306;BME280;66145;45.188;5.712;2023-04-25T11:58:01;98916.25;;;18.64;49.81
54306;BME280;66145;45.188;5.712;2023-04-25T12:00:28;98894.00;;;18.57;49.77
54306;BME280;66145;45.188;5.712;2023-04-25T12:02:55;98906.75;;;18.70;49.40
54306;BME280;66145;45.188;5.712;2023-04-25T12:05:25;98918.69;;;18.83;49.33
54306;BME280;66145;45.188;5.712;2023-04-25T12:07:51;98909.34;;;18.76;49.35
54306;BME280;66145;45.188;5.712;2023-04-25T12:10:18;98881.94;;;18.67;49.21
54306;BME280;66145;45.188;5.712;2023-04-25T12:12:45;98887.22;;;18.72;49.26
54306;BME280;66145;45.188;5.712;2023-04-25T12:15:22;98905.44;;;18.85;49.30
54306;BME280;66145;45.188;5.712;2023-04-25T12:17:49;98887.72;;;18.74;49.14
54306;BME280;66145;45.188;5.712;2023-04-25T12:20:17;98879.84;;;18.64;49.14
54306;BME280;66145;45.188;5.712;2023-04-25T12:22:45;98901.25;;;18.70;49.39
54306;BME280;66145;45.188;5.712;2023-04-25T12:25:38;98915.13;;;18.83;49.20
54306;BME280;66145;45.188;5.712;2023-04-25T12:28:24;98864.81;;;18.61;49.21
54306;BME280;66145;45.188;5.712;2023-04-25T12:31:05;98883.69;;;18.63;49.22
54306;BME280;66145;45.188;5.712;2023-04-25T12:33:33;98865.81;;;18.48;49.21
54306;BME280;66145;45.188;5.712;2023-04-25T12:36:00;98918.81;;;18.78;49.51
54306;BME280;66145;45.188;5.712;2023-04-25T12:38:30;98911.09;;;18.63;49.54
54306;BME280;66145;45.188;5.712;2023-04-25T12:40:59;98912.38;;;18.65;49.65
54306;BME280;66145;45.188;5.712;2023-04-25T12:43:25;98908.50;;;18.66;49.78
54306;BME280;66145;45.188;5.712;2023-04-25T12:45:52;98862.75;;;18.32;49.85
54306;BME280;66145;45.188;5.712;2023-04-25T12:48:18;98875.63;;;18.49;49.40
54306;BME280;66145;45.188;5.712;2023-04-25T12:50:45;98908.03;;;18.73;49.30
54306;BME280;66145;45.188;5.712;2023-04-25T12:53:12;98887.06;;;18.60;49.06
54306;BME280;66145;45.188;5.712;2023-04-25T12:55:38;98881.75;;;18.63;49.18
54306;BME280;66145;45.188;5.712;2023-04-25T12:58:03;98868.25;;;18.58;49.12
54306;BME280;66145;45.188;5.712;2023-04-25T13:00:29;98828.44;;;18.34;49.03
54306;BME280;66145;45.188;5.712;2023-04-25T13:02:55;98922.22;;;18.84;48.83